Time,TemperatureF,DewpointF,PressureIn,WindDirection,WindDirectionDegrees,WindSpeedMPH,WindSpeedGustMPH,Humidity,HourlyPrecipIn,Conditions,Clouds,dailyrainin,SoftwareType,DateUTC
2013-05-23 00:01:00,42.8,39.5,29.77,NE,42,0.0,2.0,88,0.08,,---,0.01,VWS V13.01,2013-05-23 06:01:00,
2013-05-23 00:06:00,42.6,39.3,29.77,NE,54,1.0,1.0,88,0.07,,---,0.02,VWS V13.01,2013-05-23 06:06:00,
2013-05-23 00:12:00,42.5,39.2,29.77,NNE,24,0.0,0.0,88,0.08,,---,0.03,VWS V13.01,2013-05-23 06:12:00,
2013-05-23 00:17:00,42.5,39.2,29.78,ENE,65,0.0,1.0,88,0.08,,---,0.05,VWS V13.01,2013-05-23 06:17:00,
2013-05-23 00:22:00,42.3,39.0,29.78,ENE,57,0.0,1.0,88,0.10,,---,0.07,VWS V13.01,2013-05-23 06:22:00,
2013-05-23 00:27:00,42.2,39.2,29.78,ENE,57,0.0,0.0,89,0.12,,---,0.09,VWS V13.01,2013-05-23 06:27:00,
2013-05-23 00:32:00,42.1,39.1,29.79,ENE,57,0.0,0.0,89,0.13,,---,0.10,VWS V13.01,2013-05-23 06:32:00,
2013-05-23 00:37:00,42.1,39.1,29.79,ENE,57,0.0,0.0,89,0.15,,---,0.12,VWS V13.01,2013-05-23 06:37:00,
2013-05-23 00:42:00,41.9,39.2,29.79,ENE,57,0.0,0.0,90,0.16,,---,0.14,VWS V13.01,2013-05-23 06:42:00,
2013-05-23 00:47:00,41.9,39.2,29.79,ENE,57,0.0,0.0,90,0.15,,---,0.14,VWS V13.01,2013-05-23 06:47:00,
2013-05-23 00:52:00,41.9,39.2,29.79,ENE,57,0.0,0.0,90,0.16,,---,0.15,VWS V13.01,2013-05-23 06:52:00,
2013-05-23 00:57:00,41.9,39.5,29.79,ENE,57,0.0,0.0,91,0.15,,---,0.15,VWS V13.01,2013-05-23 06:57:00,
2013-05-23 01:02:00,41.9,39.5,29.79,ENE,57,0.0,0.0,91,0.14,,---,0.15,VWS V13.01,2013-05-23 07:02:00,
2013-05-23 01:07:00,42.1,39.7,29.79,ENE,57,0.0,0.0,91,0.15,,---,0.16,VWS V13.01,2013-05-23 07:07:00,
2013-05-23 01:13:00,42.1,39.7,29.79,NE,53,2.0,3.0,91,0.14,,---,0.18,VWS V13.01,2013-05-23 07:13:00,
2013-05-23 01:18:00,42.1,39.7,29.81,North,360,0.0,3.0,91,0.15,,---,0.20,VWS V13.01,2013-05-23 07:18:00,
2013-05-23 01:23:00,41.9,39.5,29.81,NE,50,0.0,2.0,91,0.16,,---,0.22,VWS V13.01,2013-05-23 07:23:00,
2013-05-23 01:28:00,41.8,39.4,29.81,NE,50,0.0,0.0,91,0.16,,---,0.24,VWS V13.01,2013-05-23 07:28:00,
2013-05-23 01:33:00,41.6,38.9,29.79,NE,55,0.0,2.0,90,0.15,,---,0.24,VWS V13.01,2013-05-23 07:33:00,
2013-05-23 01:38:00,41.3,38.6,29.79,ENE,69,0.0,3.0,90,0.14,,---,0.25,VWS V13.01,2013-05-23 07:38:00,
2013-05-23 01:43:00,41.2,38.5,29.79,ENE,67,0.0,0.0,90,0.13,,---,0.26,VWS V13.01,2013-05-23 07:43:00,
2013-05-23 01:48:00,41.1,38.4,29.80,ENE,67,0.0,0.0,90,0.12,,---,0.27,VWS V13.01,2013-05-23 07:48:00,
2013-05-23 01:55:00,40.8,38.1,29.80,ENE,67,0.0,0.0,90,0.13,,---,0.28,VWS V13.01,2013-05-23 07:55:00,
2013-05-23 02:00:00,40.6,37.9,29.80,ENE,67,0.0,0.0,90,0.14,,---,0.29,VWS V13.01,2013-05-23 08:00:00,
2013-05-23 02:05:00,40.6,37.9,29.80,North,350,1.0,2.0,90,0.15,,---,0.30,VWS V13.01,2013-05-23 08:05:00,
2013-05-23 02:10:00,40.5,37.8,29.80,North,5,0.0,2.0,90,0.15,,---,0.30,VWS V13.01,2013-05-23 08:10:00,
2013-05-23 02:15:00,40.6,38.2,29.77,NNE,21,0.0,0.0,91,0.14,,---,0.31,VWS V13.01,2013-05-23 08:15:00,
2013-05-23 02:20:00,40.6,38.2,29.77,NE,55,0.0,0.0,91,0.12,,---,0.31,VWS V13.01,2013-05-23 08:20:00,
2013-05-23 02:25:00,40.6,38.2,29.77,NE,55,1.0,1.0,91,0.10,,---,0.31,VWS V13.01,2013-05-23 08:25:00,
2013-05-23 02:30:00,40.6,38.2,29.79,NE,43,1.0,4.0,91,0.09,,---,0.32,VWS V13.01,2013-05-23 08:30:00,
2013-05-23 02:35:00,40.5,38.1,29.79,NNW,328,1.0,3.0,91,0.10,,---,0.34,VWS V13.01,2013-05-23 08:35:00,
2013-05-23 02:40:00,40.5,38.1,29.79,North,355,0.0,2.0,91,0.10,,---,0.35,VWS V13.01,2013-05-23 08:40:00,
2013-05-23 02:45:00,40.3,37.9,29.78,NW,319,0.0,1.0,91,0.11,,---,0.36,VWS V13.01,2013-05-23 08:45:00,
2013-05-23 02:51:00,40.3,37.9,29.78,North,11,0.0,3.0,91,0.11,,---,0.37,VWS V13.01,2013-05-23 08:51:00,
2013-05-23 02:56:00,40.3,37.9,29.78,NNE,22,0.0,0.0,91,0.09,,---,0.37,VWS V13.01,2013-05-23 08:56:00,
2013-05-23 03:01:00,40.2,37.5,29.80,NNE,17,1.0,1.0,90,0.09,,---,0.37,VWS V13.01,2013-05-23 09:01:00,
2013-05-23 03:06:00,40.1,37.4,29.80,NE,47,0.0,4.0,90,0.08,,---,0.38,VWS V13.01,2013-05-23 09:06:00,
2013-05-23 03:11:00,39.9,37.5,29.80,NE,47,0.0,0.0,91,0.08,,---,0.38,VWS V13.01,2013-05-23 09:11:00,
2013-05-23 03:16:00,39.9,37.5,29.81,NE,42,0.0,2.0,91,0.08,,---,0.39,VWS V13.01,2013-05-23 09:16:00,
2013-05-23 03:21:00,39.9,37.5,29.81,NE,43,0.0,0.0,91,0.09,,---,0.40,VWS V13.01,2013-05-23 09:21:00,
2013-05-23 03:26:00,39.9,37.5,29.81,ENE,63,2.0,2.0,91,0.09,,---,0.40,VWS V13.01,2013-05-23 09:26:00,
2013-05-23 03:31:00,39.9,37.5,29.81,NE,42,0.0,1.0,91,0.09,,---,0.41,VWS V13.01,2013-05-23 09:31:00,
2013-05-23 03:36:00,39.9,37.5,29.81,NE,42,0.0,0.0,91,0.09,,---,0.41,VWS V13.01,2013-05-23 09:36:00,
2013-05-23 03:42:00,39.9,37.5,29.81,NNW,333,0.0,0.0,91,0.07,,---,0.42,VWS V13.01,2013-05-23 09:42:00,
2013-05-23 03:47:00,39.9,37.5,29.81,NE,46,0.0,0.0,91,0.06,,---,0.42,VWS V13.01,2013-05-23 09:47:00,
2013-05-23 03:52:00,39.8,37.4,29.81,NE,46,0.0,0.0,91,0.06,,---,0.43,VWS V13.01,2013-05-23 09:52:00,
2013-05-23 03:57:00,39.8,37.4,29.81,NE,46,0.0,0.0,91,0.07,,---,0.44,VWS V13.01,2013-05-23 09:57:00,
2013-05-23 04:02:00,39.8,37.4,29.81,NE,46,0.0,0.0,91,0.07,,---,0.44,VWS V13.01,2013-05-23 10:02:00,
2013-05-23 04:07:00,39.8,37.4,29.81,NE,46,0.0,0.0,91,0.07,,---,0.45,VWS V13.01,2013-05-23 10:07:00,
2013-05-23 04:12:00,39.8,37.4,29.81,NE,46,0.0,0.0,91,0.07,,---,0.45,VWS V13.01,2013-05-23 10:12:00,
2013-05-23 04:17:00,39.8,37.4,29.82,NE,46,0.0,1.0,91,0.06,,---,0.45,VWS V13.01,2013-05-23 10:17:00,
2013-05-23 04:22:00,39.6,37.2,29.82,NE,46,0.0,0.0,91,0.05,,---,0.46,VWS V13.01,2013-05-23 10:22:00,
2013-05-23 04:27:00,39.6,37.2,29.82,NE,46,0.0,0.0,91,0.06,,---,0.46,VWS V13.01,2013-05-23 10:27:00,
2013-05-23 04:32:00,39.3,36.9,29.81,NE,55,0.0,1.0,91,0.05,,---,0.46,VWS V13.01,2013-05-23 10:32:00,
2013-05-23 04:38:00,39.2,36.5,29.81,NW,311,0.0,3.0,90,0.05,,---,0.46,VWS V13.01,2013-05-23 10:38:00,
2013-05-23 04:43:00,38.9,36.2,29.81,North,11,1.0,3.0,90,0.05,,---,0.47,VWS V13.01,2013-05-23 10:43:00,
2013-05-23 04:48:00,38.6,35.9,29.81,NNE,13,0.0,0.0,90,0.05,,---,0.47,VWS V13.01,2013-05-23 10:48:00,
2013-05-23 04:53:00,38.3,35.6,29.81,NE,38,0.0,3.0,90,0.04,,---,0.47,VWS V13.01,2013-05-23 10:53:00,
2013-05-23 04:58:00,38.2,35.5,29.81,NE,36,0.0,1.0,90,0.03,,---,0.48,VWS V13.01,2013-05-23 10:58:00,
2013-05-23 05:03:00,38.0,35.3,29.83,NE,38,0.0,2.0,90,0.04,,---,0.48,VWS V13.01,2013-05-23 11:03:00,
2013-05-23 05:08:00,37.9,35.2,29.83,NNE,17,0.0,3.0,90,0.03,,---,0.48,VWS V13.01,2013-05-23 11:08:00,
2013-05-23 05:13:00,37.8,35.1,29.83,North,355,0.0,1.0,90,0.03,,---,0.48,VWS V13.01,2013-05-23 11:13:00,
2013-05-23 05:18:00,37.8,35.1,29.83,NNE,17,0.0,0.0,90,0.04,,---,0.49,VWS V13.01,2013-05-23 11:18:00,
2013-05-23 05:24:00,37.6,34.9,29.83,NNE,17,0.0,0.0,90,0.04,,---,0.49,VWS V13.01,2013-05-23 11:24:00,
2013-05-23 05:29:00,37.6,34.9,29.83,NE,40,0.0,3.0,90,0.03,,---,0.49,VWS V13.01,2013-05-23 11:29:00,
2013-05-23 05:34:00,37.5,34.8,29.85,NNE,19,2.0,4.0,90,0.03,,---,0.49,VWS V13.01,2013-05-23 11:34:00,
2013-05-23 05:39:00,37.2,34.5,29.85,NNE,15,2.0,3.0,90,0.03,,---,0.50,VWS V13.01,2013-05-23 11:39:00,
2013-05-23 05:44:00,36.9,34.2,29.85,NNE,24,0.0,2.0,90,0.03,,---,0.50,VWS V13.01,2013-05-23 11:44:00,
2013-05-23 05:49:00,36.8,34.2,29.85,NNW,334,1.0,2.0,90,0.03,,---,0.50,VWS V13.01,2013-05-23 11:49:00,
2013-05-23 05:54:00,36.6,34.0,29.85,North,360,0.0,2.0,90,0.04,,---,0.51,VWS V13.01,2013-05-23 11:54:00,
2013-05-23 06:00:00,36.6,34.2,29.85,NNW,338,3.0,4.0,91,0.04,,---,0.51,VWS V13.01,2013-05-23 12:00:00,
2013-05-23 06:05:00,36.6,34.0,29.85,WNW,284,0.0,2.0,90,0.03,,---,0.51,VWS V13.01,2013-05-23 12:05:00,
2013-05-23 06:10:00,36.6,34.0,29.85,NNE,19,0.0,2.0,90,0.03,,---,0.51,VWS V13.01,2013-05-23 12:10:00,
2013-05-23 06:15:00,36.5,33.8,29.86,NNE,19,0.0,0.0,90,0.03,,---,0.51,VWS V13.01,2013-05-23 12:15:00,
2013-05-23 06:20:00,36.6,34.2,29.86,NE,49,0.0,2.0,91,0.03,,---,0.51,VWS V13.01,2013-05-23 12:20:00,
2013-05-23 06:25:00,36.8,34.4,29.86,NE,49,0.0,0.0,91,0.03,,---,0.52,VWS V13.01,2013-05-23 12:25:00,
2013-05-23 06:30:00,36.8,34.4,29.86,NNE,22,0.0,2.0,91,0.03,,---,0.52,VWS V13.01,2013-05-23 12:30:00,
2013-05-23 06:35:00,36.8,34.4,29.86,NNE,22,0.0,0.0,91,0.03,,---,0.52,VWS V13.01,2013-05-23 12:35:00,
2013-05-23 06:40:00,36.8,34.4,29.86,NNE,22,0.0,0.0,91,0.04,,---,0.53,VWS V13.01,2013-05-23 12:40:00,
2013-05-23 06:46:00,36.9,34.5,29.86,NNE,22,0.0,0.0,91,0.03,,---,0.53,VWS V13.01,2013-05-23 12:46:00,
2013-05-23 06:51:00,36.9,34.5,29.86,NNE,22,0.0,0.0,91,0.03,,---,0.53,VWS V13.01,2013-05-23 12:51:00,
2013-05-23 06:56:00,37.0,34.6,29.86,NNE,22,0.0,0.0,91,0.03,,---,0.53,VWS V13.01,2013-05-23 12:56:00,
2013-05-23 07:01:00,37.0,34.6,29.86,NNE,22,0.0,0.0,91,0.02,,---,0.53,VWS V13.01,2013-05-23 13:01:00,
2013-05-23 07:06:00,37.2,35.1,29.86,NNE,22,0.0,0.0,92,0.02,,---,0.53,VWS V13.01,2013-05-23 13:06:00,
2013-05-23 07:11:00,37.2,35.1,29.86,NNE,22,0.0,1.0,92,0.02,,---,0.53,VWS V13.01,2013-05-23 13:11:00,
2013-05-23 07:16:00,37.2,34.8,29.87,NE,46,0.0,0.0,91,0.02,,---,0.53,VWS V13.01,2013-05-23 13:16:00,
2013-05-23 07:21:00,37.2,34.8,29.87,NE,51,0.0,0.0,91,0.02,,---,0.53,VWS V13.01,2013-05-23 13:21:00,
2013-05-23 07:26:00,37.2,34.8,29.87,NE,51,0.0,0.0,91,0.02,,---,0.53,VWS V13.01,2013-05-23 13:26:00,
2013-05-23 07:31:00,37.3,35.2,29.89,NE,51,0.0,0.0,92,0.01,,---,0.53,VWS V13.01,2013-05-23 13:31:00,
2013-05-23 07:36:00,37.3,35.2,29.89,NNE,17,1.0,2.0,92,0.01,,---,0.53,VWS V13.01,2013-05-23 13:36:00,
2013-05-23 07:41:00,37.2,34.8,29.89,NNE,17,0.0,1.0,91,0.01,,---,0.53,VWS V13.01,2013-05-23 13:41:00,
2013-05-23 07:47:00,36.8,33.9,29.90,NNW,336,0.0,0.0,89,0.00,,---,0.53,VWS V13.01,2013-05-23 13:47:00,
2013-05-23 07:52:00,36.2,33.3,29.90,ENE,74,0.0,1.0,89,0.01,,---,0.54,VWS V13.01,2013-05-23 13:52:00,
2013-05-23 07:57:00,35.6,32.7,29.90,ENE,58,0.0,0.0,89,0.02,,---,0.55,VWS V13.01,2013-05-23 13:57:00,
2013-05-23 08:02:00,35.2,32.3,29.90,ENE,58,0.0,0.0,89,0.03,,---,0.56,VWS V13.01,2013-05-23 14:02:00,
2013-05-23 08:07:00,34.9,32.0,29.90,ENE,58,0.0,1.0,89,0.03,,---,0.56,VWS V13.01,2013-05-23 14:07:00,
2013-05-23 08:12:00,34.6,31.7,29.90,ENE,58,0.0,0.0,89,0.04,,---,0.57,VWS V13.01,2013-05-23 14:12:00,
2013-05-23 08:17:00,34.6,32.0,29.90,ENE,58,0.0,0.0,90,0.05,,---,0.58,VWS V13.01,2013-05-23 14:17:00,
2013-05-23 08:22:00,34.3,31.7,29.90,ENE,58,0.0,0.0,90,0.06,,---,0.59,VWS V13.01,2013-05-23 14:22:00,
2013-05-23 08:27:00,34.3,31.7,29.90,ENE,58,0.0,0.0,90,0.07,,---,0.60,VWS V13.01,2013-05-23 14:27:00,
2013-05-23 08:33:00,34.3,31.7,29.92,ENE,58,0.0,0.0,90,0.08,,---,0.61,VWS V13.01,2013-05-23 14:33:00,
2013-05-23 08:38:00,34.3,32.0,29.92,ENE,58,0.0,0.0,91,0.09,,---,0.62,VWS V13.01,2013-05-23 14:38:00,
2013-05-23 08:43:00,34.6,32.2,29.92,ENE,58,0.0,0.0,91,0.09,,---,0.62,VWS V13.01,2013-05-23 14:43:00,
2013-05-23 08:48:00,34.9,32.5,29.91,ENE,58,0.0,0.0,91,0.10,,---,0.63,VWS V13.01,2013-05-23 14:48:00,
2013-05-23 08:53:00,35.2,33.1,29.91,ENE,58,0.0,0.0,92,0.09,,---,0.63,VWS V13.01,2013-05-23 14:53:00,
2013-05-23 08:58:00,35.5,33.4,29.91,ENE,58,0.0,0.0,92,0.09,,---,0.63,VWS V13.01,2013-05-23 14:58:00,
2013-05-23 09:03:00,35.8,33.7,29.91,ENE,58,0.0,0.0,92,0.08,,---,0.63,VWS V13.01,2013-05-23 15:03:00,
2013-05-23 09:08:00,35.9,33.8,29.91,ENE,58,0.0,0.0,92,0.07,,---,0.63,VWS V13.01,2013-05-23 15:08:00,
2013-05-23 09:13:00,36.0,33.9,29.91,ENE,58,0.0,0.0,92,0.07,,---,0.64,VWS V13.01,2013-05-23 15:13:00,
2013-05-23 09:18:00,36.3,34.2,29.91,ENE,58,0.0,0.0,92,0.06,,---,0.64,VWS V13.01,2013-05-23 15:18:00,
2013-05-23 09:24:00,36.8,34.7,29.91,ENE,58,0.0,0.0,92,0.05,,---,0.64,VWS V13.01,2013-05-23 15:24:00,
2013-05-23 09:29:00,37.5,35.7,29.91,ENE,58,0.0,0.0,93,0.05,,---,0.65,VWS V13.01,2013-05-23 15:29:00,
2013-05-23 09:34:00,38.2,36.4,29.90,ENE,58,0.0,0.0,93,0.04,,---,0.65,VWS V13.01,2013-05-23 15:34:00,
2013-05-23 09:39:00,38.6,36.8,29.90,ENE,58,0.0,0.0,93,0.04,,---,0.65,VWS V13.01,2013-05-23 15:39:00,
2013-05-23 09:44:00,38.9,37.0,29.90,ENE,58,0.0,0.0,93,0.03,,---,0.65,VWS V13.01,2013-05-23 15:44:00,
2013-05-23 09:49:00,39.1,37.2,29.89,ENE,58,0.0,0.0,93,0.03,,---,0.66,VWS V13.01,2013-05-23 15:49:00,
2013-05-23 09:54:00,39.1,37.2,29.89,ENE,58,0.0,0.0,93,0.03,,---,0.66,VWS V13.01,2013-05-23 15:54:00,
2013-05-23 09:59:00,39.2,37.1,29.89,ENE,58,0.0,1.0,92,0.03,,---,0.66,VWS V13.01,2013-05-23 15:59:00,
2013-05-23 10:04:00,39.6,37.8,29.88,ENE,58,0.0,0.0,93,0.03,,---,0.66,VWS V13.01,2013-05-23 16:04:00,
2013-05-23 10:09:00,39.6,37.5,29.88,ENE,58,0.0,0.0,92,0.03,,---,0.66,VWS V13.01,2013-05-23 16:09:00,
2013-05-23 10:14:00,39.8,37.7,29.88,ENE,58,0.0,0.0,92,0.03,,---,0.66,VWS V13.01,2013-05-23 16:14:00,
2013-05-23 10:20:00,39.8,37.7,29.89,WSW,251,0.0,2.0,92,0.02,,---,0.66,VWS V13.01,2013-05-23 16:20:00,
2013-05-23 10:25:00,39.8,37.7,29.89,NNE,23,0.0,1.0,92,0.02,,---,0.66,VWS V13.01,2013-05-23 16:25:00,
2013-05-23 10:30:00,39.8,37.7,29.89,WNW,300,0.0,1.0,92,0.01,,---,0.66,VWS V13.01,2013-05-23 16:30:00,
2013-05-23 10:35:00,39.5,37.1,29.89,WNW,302,0.0,0.0,91,0.01,,---,0.66,VWS V13.01,2013-05-23 16:35:00,
2013-05-23 10:40:00,39.5,37.1,29.89,WNW,301,0.0,0.0,91,0.01,,---,0.66,VWS V13.01,2013-05-23 16:40:00,
2013-05-23 10:45:00,39.6,37.2,29.89,NW,325,0.0,2.0,91,0.01,,---,0.66,VWS V13.01,2013-05-23 16:45:00,
2013-05-23 10:50:00,39.8,37.7,29.89,NNW,333,0.0,1.0,92,0.01,,---,0.66,VWS V13.01,2013-05-23 16:50:00,
2013-05-23 10:55:00,40.2,38.1,29.89,NNW,335,0.0,1.0,92,0.00,,---,0.66,VWS V13.01,2013-05-23 16:55:00,
2013-05-23 11:00:00,40.2,37.5,29.89,NNW,335,0.0,0.0,90,0.00,,---,0.66,VWS V13.01,2013-05-23 17:00:00,
2013-05-23 11:05:00,40.3,37.6,29.89,NNW,335,0.0,0.0,90,0.00,,---,0.66,VWS V13.01,2013-05-23 17:05:00,
2013-05-23 11:10:00,40.5,38.1,29.89,NNW,336,0.0,0.0,91,0.00,,---,0.66,VWS V13.01,2013-05-23 17:10:00,
2013-05-23 11:16:00,40.9,38.5,29.91,NNW,336,0.0,0.0,91,0.00,,---,0.66,VWS V13.01,2013-05-23 17:16:00,
2013-05-23 11:21:00,40.9,38.2,29.91,NNW,335,0.0,0.0,90,0.00,,---,0.66,VWS V13.01,2013-05-23 17:21:00,
2013-05-23 11:26:00,41.1,38.4,29.91,NNW,335,0.0,0.0,90,0.00,,---,0.66,VWS V13.01,2013-05-23 17:26:00,
2013-05-23 11:31:00,41.3,38.3,29.91,NNW,342,0.0,1.0,89,0.00,,---,0.66,VWS V13.01,2013-05-23 17:31:00,
2013-05-23 11:36:00,41.5,38.5,29.91,NNW,342,0.0,0.0,89,0.00,,---,0.66,VWS V13.01,2013-05-23 17:36:00,
2013-05-23 11:41:00,41.2,37.0,29.91,West,275,0.0,0.0,85,0.00,,---,0.66,VWS V13.01,2013-05-23 17:41:00,
2013-05-23 11:46:00,41.1,37.5,29.91,NNW,329,0.0,0.0,87,0.00,,---,0.66,VWS V13.01,2013-05-23 17:46:00,
2013-05-23 11:51:00,41.2,37.3,29.91,NNW,329,0.0,0.0,86,0.00,,---,0.66,VWS V13.01,2013-05-23 17:51:00,
2013-05-23 11:56:00,41.2,37.3,29.91,West,261,1.0,3.0,86,0.00,,---,0.66,VWS V13.01,2013-05-23 17:56:00,
2013-05-23 12:02:00,40.6,36.2,29.92,WSW,248,0.0,1.0,84,0.00,,---,0.66,VWS V13.01,2013-05-23 18:02:00,
2013-05-23 12:07:00,40.5,36.7,29.92,WSW,246,0.0,0.0,86,0.00,,---,0.66,VWS V13.01,2013-05-23 18:07:00,
2013-05-23 12:13:00,40.6,37.0,29.92,WSW,244,0.0,2.0,87,0.00,,---,0.66,VWS V13.01,2013-05-23 18:13:00,
2013-05-23 12:18:00,40.5,36.0,29.94,West,278,0.0,2.0,84,0.00,,---,0.66,VWS V13.01,2013-05-23 18:18:00,
2013-05-23 12:23:00,40.8,36.7,29.94,West,277,0.0,2.0,85,0.00,,---,0.66,VWS V13.01,2013-05-23 18:23:00,
2013-05-23 12:28:00,40.9,36.5,29.94,West,275,0.0,0.0,84,0.00,,---,0.66,VWS V13.01,2013-05-23 18:28:00,
2013-05-23 12:33:00,41.2,36.7,29.94,West,281,0.0,3.0,84,0.00,,---,0.66,VWS V13.01,2013-05-23 18:33:00,
2013-05-23 12:38:00,41.3,35.3,29.94,North,355,0.0,0.0,79,0.00,,---,0.66,VWS V13.01,2013-05-23 18:38:00,
2013-05-23 12:43:00,41.6,36.8,29.94,North,355,0.0,0.0,83,0.00,,---,0.66,VWS V13.01,2013-05-23 18:43:00,
2013-05-23 12:48:00,41.9,35.5,29.92,North,355,0.0,0.0,78,0.00,,---,0.66,VWS V13.01,2013-05-23 18:48:00,
2013-05-23 12:53:00,42.2,36.8,29.92,North,355,0.0,0.0,81,0.00,,---,0.66,VWS V13.01,2013-05-23 18:53:00,
2013-05-23 12:58:00,42.6,37.5,29.92,North,355,0.0,1.0,82,0.00,,---,0.66,VWS V13.01,2013-05-23 18:58:00,
2013-05-23 13:04:00,43.1,37.0,29.92,North,355,0.0,0.0,79,0.00,,---,0.66,VWS V13.01,2013-05-23 19:04:00,
2013-05-23 13:09:00,43.6,38.2,29.92,North,355,0.0,1.0,81,0.00,,---,0.66,VWS V13.01,2013-05-23 19:09:00,
2013-05-23 13:14:00,44.1,38.0,29.92,North,355,0.0,0.0,79,0.00,,---,0.66,VWS V13.01,2013-05-23 19:14:00,
2013-05-23 13:19:00,44.2,37.5,29.92,North,355,0.0,0.0,77,0.00,,---,0.66,VWS V13.01,2013-05-23 19:19:00,
2013-05-23 13:24:00,44.3,38.2,29.92,North,355,0.0,0.0,79,0.00,,---,0.66,VWS V13.01,2013-05-23 19:24:00,
2013-05-23 13:29:00,44.6,36.8,29.92,ENE,65,0.0,0.0,74,0.00,,---,0.66,VWS V13.01,2013-05-23 19:29:00,
2013-05-23 13:34:00,44.9,38.8,29.91,ENE,65,0.0,0.0,79,0.00,,---,0.66,VWS V13.01,2013-05-23 19:34:00,
2013-05-23 13:39:00,45.4,38.3,29.91,ENE,63,0.0,1.0,76,0.00,,---,0.66,VWS V13.01,2013-05-23 19:39:00,
2013-05-23 13:44:00,45.8,39.0,29.91,North,5,0.0,0.0,77,0.00,,---,0.66,VWS V13.01,2013-05-23 19:44:00,
2013-05-23 13:49:00,46.2,39.4,29.92,North,5,0.0,1.0,77,0.00,,---,0.66,VWS V13.01,2013-05-23 19:49:00,
2013-05-23 13:54:00,46.7,38.2,29.92,North,5,0.0,0.0,72,0.00,,---,0.66,VWS V13.01,2013-05-23 19:54:00,
2013-05-23 13:59:00,47.0,37.4,29.92,West,266,0.0,1.0,69,0.00,,---,0.66,VWS V13.01,2013-05-23 19:59:00,
2013-05-23 14:05:00,47.3,39.8,29.90,West,271,0.0,1.0,75,0.00,,---,0.66,VWS V13.01,2013-05-23 20:05:00,
2013-05-23 14:10:00,47.6,38.7,29.90,NE,41,0.0,1.0,71,0.00,,---,0.66,VWS V13.01,2013-05-23 20:10:00,
2013-05-23 14:15:00,48.0,39.1,29.90,ENE,62,0.0,0.0,71,0.00,,---,0.66,VWS V13.01,2013-05-23 20:15:00,
2013-05-23 14:20:00,48.6,39.3,29.90,ENE,74,0.0,1.0,70,0.00,,---,0.66,VWS V13.01,2013-05-23 20:20:00,
2013-05-23 14:25:00,48.8,37.2,29.90,ENE,74,0.0,1.0,64,0.00,,---,0.66,VWS V13.01,2013-05-23 20:25:00,
2013-05-23 14:30:00,48.8,38.0,29.89,SE,138,0.0,2.0,66,0.00,,---,0.66,VWS V13.01,2013-05-23 20:30:00,
2013-05-23 14:35:00,49.4,39.7,29.89,North,355,0.0,2.0,69,0.00,,---,0.66,VWS V13.01,2013-05-23 20:35:00,
2013-05-23 14:40:00,50.2,36.9,29.89,WNW,295,1.0,5.0,60,0.00,,---,0.66,VWS V13.01,2013-05-23 20:40:00,
2013-05-23 14:45:00,50.7,37.8,29.88,WNW,298,1.0,4.0,61,0.00,,---,0.66,VWS V13.01,2013-05-23 20:45:00,
2013-05-23 14:51:00,51.0,38.9,29.88,NW,324,0.0,2.0,63,0.00,,---,0.66,VWS V13.01,2013-05-23 20:51:00,
2013-05-23 14:56:00,51.6,36.0,29.88,NW,309,0.0,1.0,55,0.00,,---,0.66,VWS V13.01,2013-05-23 20:56:00,
2013-05-23 15:01:00,51.7,36.5,29.86,NNW,346,0.0,5.0,56,0.00,,---,0.66,VWS V13.01,2013-05-23 21:01:00,
2013-05-23 15:06:00,52.5,36.3,29.86,North,5,0.0,4.0,54,0.00,,---,0.66,VWS V13.01,2013-05-23 21:06:00,
2013-05-23 15:11:00,52.6,37.8,29.86,NW,315,0.0,0.0,57,0.00,,---,0.66,VWS V13.01,2013-05-23 21:11:00,
2013-05-23 15:16:00,52.3,36.6,29.87,NNE,30,0.0,2.0,55,0.00,,---,0.66,VWS V13.01,2013-05-23 21:16:00,
2013-05-23 15:21:00,52.6,37.4,29.87,NNE,30,0.0,0.0,56,0.00,,---,0.66,VWS V13.01,2013-05-23 21:21:00,
2013-05-23 15:26:00,53.2,40.1,29.87,NE,46,0.0,0.0,61,0.00,,---,0.66,VWS V13.01,2013-05-23 21:26:00,
2013-05-23 15:31:00,53.5,38.2,29.86,WNW,294,1.0,1.0,56,0.00,,---,0.66,VWS V13.01,2013-05-23 21:31:00,
2013-05-23 15:36:00,53.1,36.4,29.86,NNE,17,2.0,3.0,53,0.00,,---,0.66,VWS V13.01,2013-05-23 21:36:00,
2013-05-23 15:42:00,52.9,38.5,29.86,NW,307,0.0,0.0,58,0.00,,---,0.66,VWS V13.01,2013-05-23 21:42:00,
2013-05-23 15:47:00,53.3,38.5,29.86,NNW,338,1.0,1.0,57,0.00,,---,0.66,VWS V13.01,2013-05-23 21:47:00,
2013-05-23 15:52:00,53.8,36.6,29.86,East,89,2.0,2.0,52,0.00,,---,0.66,VWS V13.01,2013-05-23 21:52:00,
2013-05-23 15:57:00,53.5,35.8,29.86,SW,235,1.0,3.0,51,0.00,,---,0.66,VWS V13.01,2013-05-23 21:57:00,
2013-05-23 16:02:00,53.2,38.8,29.86,North,5,0.0,2.0,58,0.00,,---,0.66,VWS V13.01,2013-05-23 22:02:00,
2013-05-23 16:07:00,53.5,39.5,29.86,West,281,0.0,2.0,59,0.00,,---,0.66,VWS V13.01,2013-05-23 22:07:00,
2013-05-23 16:12:00,52.9,36.7,29.86,NE,48,0.0,2.0,54,0.00,,---,0.66,VWS V13.01,2013-05-23 22:12:00,
2013-05-23 16:17:00,53.1,37.4,29.87,North,355,2.0,2.0,55,0.00,,---,0.66,VWS V13.01,2013-05-23 22:17:00,
2013-05-23 16:22:00,53.2,36.5,29.87,WSW,239,4.0,5.0,53,0.00,,---,0.66,VWS V13.01,2013-05-23 22:22:00,
2013-05-23 16:27:00,52.5,36.8,29.87,WSW,247,1.0,1.0,55,0.00,,---,0.66,VWS V13.01,2013-05-23 22:27:00,
2013-05-23 16:33:00,51.9,36.3,29.87,North,5,0.0,1.0,55,0.00,,---,0.66,VWS V13.01,2013-05-23 22:33:00,
2013-05-23 16:38:00,51.7,37.0,29.87,North,5,0.0,0.0,57,0.00,,---,0.66,VWS V13.01,2013-05-23 22:38:00,
2013-05-23 16:43:00,51.4,36.2,29.87,West,277,0.0,3.0,56,0.00,,---,0.66,VWS V13.01,2013-05-23 22:43:00,
2013-05-23 16:48:00,51.3,36.2,29.88,East,91,0.0,1.0,56,0.00,,---,0.66,VWS V13.01,2013-05-23 22:48:00,
2013-05-23 16:53:00,51.4,37.6,29.88,East,91,0.0,0.0,59,0.00,,---,0.66,VWS V13.01,2013-05-23 22:53:00,
2013-05-23 16:58:00,51.6,36.9,29.88,NNW,339,0.0,2.0,57,0.00,,---,0.66,VWS V13.01,2013-05-23 22:58:00,
2013-05-23 17:03:00,51.7,35.6,29.87,NNW,339,1.0,1.0,54,0.00,,---,0.66,VWS V13.01,2013-05-23 23:03:00,
2013-05-23 17:08:00,51.1,36.4,29.87,WSW,250,0.0,3.0,57,0.00,,---,0.66,VWS V13.01,2013-05-23 23:08:00,
2013-05-23 17:13:00,50.8,37.0,29.87,NW,315,0.0,1.0,59,0.00,,---,0.66,VWS V13.01,2013-05-23 23:13:00,
2013-05-23 17:18:00,50.7,36.0,29.87,West,261,0.0,2.0,57,0.00,,---,0.66,VWS V13.01,2013-05-23 23:18:00,
2013-05-23 17:23:00,50.4,36.2,29.87,West,261,0.0,1.0,58,0.00,,---,0.66,VWS V13.01,2013-05-23 23:23:00,
2013-05-23 17:29:00,50.2,36.4,29.87,SE,125,2.0,2.0,59,0.00,,---,0.66,VWS V13.01,2013-05-23 23:29:00,
2013-05-23 17:34:00,49.9,36.2,29.87,SSW,212,0.0,2.0,59,0.00,,---,0.66,VWS V13.01,2013-05-23 23:34:00,
2013-05-23 17:39:00,49.5,36.2,29.87,WSW,244,0.0,3.0,60,0.00,,---,0.66,VWS V13.01,2013-05-23 23:39:00,
2013-05-23 17:44:00,49.5,36.2,29.87,West,272,0.0,1.0,60,0.00,,---,0.66,VWS V13.01,2013-05-23 23:44:00,
2013-05-23 17:49:00,49.5,36.6,29.86,WSW,243,3.0,3.0,61,0.00,,---,0.66,VWS V13.01,2013-05-23 23:49:00,
2013-05-23 17:54:00,49.6,36.7,29.86,SW,236,0.0,6.0,61,0.00,,---,0.66,VWS V13.01,2013-05-23 23:54:00,
2013-05-23 17:59:00,49.6,35.0,29.86,WSW,242,0.0,3.0,57,0.00,,---,0.66,VWS V13.01,2013-05-23 23:59:00,
2013-05-23 18:04:00,49.6,34.1,29.87,SW,214,0.0,3.0,55,0.00,,---,0.66,VWS V13.01,2013-05-24 00:04:00,
2013-05-23 18:09:00,49.4,34.4,29.87,SW,229,0.0,4.0,56,0.00,,---,0.66,VWS V13.01,2013-05-24 00:09:00,
2013-05-23 18:14:00,49.2,35.5,29.87,SW,229,0.0,1.0,59,0.00,,---,0.66,VWS V13.01,2013-05-24 00:14:00,
2013-05-23 18:19:00,49.4,36.1,29.87,SW,236,0.0,2.0,60,0.00,,---,0.66,VWS V13.01,2013-05-24 00:19:00,
2013-05-23 18:24:00,49.4,35.3,29.87,SW,232,0.0,1.0,58,0.00,,---,0.66,VWS V13.01,2013-05-24 00:24:00,
2013-05-23 18:29:00,49.4,34.8,29.87,SW,232,0.0,0.0,57,0.00,,---,0.66,VWS V13.01,2013-05-24 00:29:00,
2013-05-23 18:35:00,49.2,35.5,29.87,SW,232,0.0,0.0,59,0.00,,---,0.66,VWS V13.01,2013-05-24 00:35:00,
2013-05-23 18:40:00,48.9,36.1,29.87,SW,232,0.0,0.0,61,0.00,,---,0.66,VWS V13.01,2013-05-24 00:40:00,
2013-05-23 18:45:00,48.9,36.5,29.87,WSW,253,0.0,1.0,62,0.00,,---,0.66,VWS V13.01,2013-05-24 00:45:00,
2013-05-23 18:50:00,48.9,36.9,29.87,WSW,253,0.0,0.0,63,0.00,,---,0.66,VWS V13.01,2013-05-24 00:50:00,
2013-05-23 18:55:00,48.9,37.3,29.87,WSW,253,1.0,1.0,64,0.00,,---,0.66,VWS V13.01,2013-05-24 00:55:00,
2013-05-23 19:00:00,48.9,38.4,29.87,WSW,253,0.0,0.0,67,0.00,,---,0.66,VWS V13.01,2013-05-24 01:00:00,
2013-05-23 19:05:00,48.6,38.5,29.87,WSW,252,0.0,1.0,68,0.00,,---,0.66,VWS V13.01,2013-05-24 01:05:00,
2013-05-23 19:10:00,48.6,39.6,29.87,East,82,0.0,0.0,71,0.00,,---,0.66,VWS V13.01,2013-05-24 01:10:00,
2013-05-23 19:15:00,48.5,38.1,29.88,East,82,0.0,0.0,67,0.00,,---,0.66,VWS V13.01,2013-05-24 01:15:00,
2013-05-23 19:20:00,48.5,38.8,29.88,East,82,0.0,0.0,69,0.00,,---,0.66,VWS V13.01,2013-05-24 01:20:00,
2013-05-23 19:25:00,48.2,37.4,29.88,East,82,0.0,0.0,66,0.00,,---,0.66,VWS V13.01,2013-05-24 01:25:00,
2013-05-23 19:30:00,47.7,38.0,29.89,East,82,0.0,0.0,69,0.00,,---,0.66,VWS V13.01,2013-05-24 01:30:00,
2013-05-23 19:35:00,47.4,37.8,29.89,East,82,0.0,4.0,69,0.00,,---,0.66,VWS V13.01,2013-05-24 01:35:00,
2013-05-23 19:41:00,47.0,35.9,29.89,East,82,0.0,0.0,65,0.00,,---,0.66,VWS V13.01,2013-05-24 01:41:00,
2013-05-23 19:46:00,46.7,35.6,29.89,NNW,347,0.0,2.0,65,0.00,,---,0.66,VWS V13.01,2013-05-24 01:46:00,
2013-05-23 19:51:00,46.4,36.4,29.89,NNW,347,0.0,0.0,68,0.00,,---,0.66,VWS V13.01,2013-05-24 01:51:00,
2013-05-23 19:56:00,46.0,36.4,29.89,NNW,337,0.0,0.0,69,0.00,,---,0.66,VWS V13.01,2013-05-24 01:56:00,
2013-05-23 20:01:00,45.7,36.8,29.90,NNW,346,0.0,0.0,71,0.00,,---,0.66,VWS V13.01,2013-05-24 02:01:00,
2013-05-23 20:06:00,45.4,35.8,29.90,NNE,26,0.0,0.0,69,0.00,,---,0.66,VWS V13.01,2013-05-24 02:06:00,
2013-05-23 20:11:00,45.2,36.0,29.90,NNE,22,0.0,0.0,70,0.00,,---,0.66,VWS V13.01,2013-05-24 02:11:00,
2013-05-23 20:16:00,45.1,36.6,29.90,NNE,22,0.0,0.0,72,0.00,,---,0.66,VWS V13.01,2013-05-24 02:16:00,
2013-05-23 20:21:00,44.9,36.4,29.90,NNE,22,0.0,0.0,72,0.00,,---,0.66,VWS V13.01,2013-05-24 02:21:00,
2013-05-23 20:26:00,44.6,36.8,29.90,NNE,22,0.0,0.0,74,0.00,,---,0.66,VWS V13.01,2013-05-24 02:26:00,
2013-05-23 20:31:00,44.5,37.1,29.90,NNE,22,0.0,0.0,75,0.00,,---,0.66,VWS V13.01,2013-05-24 02:31:00,
2013-05-23 20:36:00,44.3,36.2,29.90,NNE,22,0.0,0.0,73,0.00,,---,0.66,VWS V13.01,2013-05-24 02:36:00,
2013-05-23 20:42:00,44.1,35.3,29.90,ESE,108,0.0,0.0,71,0.00,,---,0.66,VWS V13.01,2013-05-24 02:42:00,
2013-05-23 20:47:00,43.9,36.5,29.94,North,350,5.0,5.0,75,0.01,,---,0.67,VWS V13.01,2013-05-24 02:47:00,
2013-05-23 20:52:00,43.6,36.9,29.94,NE,36,0.0,2.0,77,0.01,,---,0.67,VWS V13.01,2013-05-24 02:52:00,
2013-05-23 20:57:00,43.1,36.7,29.94,North,5,0.0,2.0,78,0.03,,---,0.69,VWS V13.01,2013-05-24 02:57:00,
2013-05-23 21:02:00,42.3,36.3,29.96,NE,49,0.0,1.0,79,0.04,,---,0.71,VWS V13.01,2013-05-24 03:02:00,
2013-05-23 21:07:00,41.8,36.1,29.96,ENE,57,0.0,2.0,80,0.05,,---,0.71,VWS V13.01,2013-05-24 03:07:00,
2013-05-23 21:12:00,41.2,36.1,29.96,NNW,347,0.0,2.0,82,0.06,,---,0.72,VWS V13.01,2013-05-24 03:12:00,
2013-05-23 21:17:00,40.9,36.5,29.95,ENE,71,0.0,3.0,84,0.06,,---,0.72,VWS V13.01,2013-05-24 03:17:00,
2013-05-23 21:22:00,40.5,36.3,29.95,North,9,2.0,3.0,85,0.06,,---,0.72,VWS V13.01,2013-05-24 03:22:00,
2013-05-23 21:27:00,40.2,36.1,29.95,NNW,331,0.0,1.0,85,0.07,,---,0.73,VWS V13.01,2013-05-24 03:27:00,
2013-05-23 21:33:00,40.1,36.0,29.96,East,96,0.0,1.0,85,0.07,,---,0.73,VWS V13.01,2013-05-24 03:33:00,
2013-05-23 21:38:00,39.9,36.1,29.96,East,82,0.0,1.0,86,0.07,,---,0.73,VWS V13.01,2013-05-24 03:38:00,
2013-05-23 21:43:00,39.8,36.2,29.96,NNE,19,0.0,1.0,87,0.07,,---,0.73,VWS V13.01,2013-05-24 03:43:00,
2013-05-23 21:48:00,39.8,36.2,29.96,NNE,19,0.0,0.0,87,0.06,,---,0.73,VWS V13.01,2013-05-24 03:48:00,
2013-05-23 21:53:00,39.8,36.5,29.96,NNE,19,0.0,0.0,88,0.06,,---,0.73,VWS V13.01,2013-05-24 03:53:00,
2013-05-23 21:58:00,39.8,36.5,29.96,NNE,19,0.0,1.0,88,0.04,,---,0.73,VWS V13.01,2013-05-24 03:58:00,
2013-05-23 22:01:00,39.8,36.5,29.96,NNE,19,0.0,1.0,88,0.04,,---,0.73,VWS V13.01,2013-05-24 04:01:00,
2013-05-23 22:02:00,39.8,36.5,29.96,NNE,19,0.0,0.0,88,0.03,,---,0.73,VWS V13.01,2013-05-24 04:02:00,
2013-05-23 22:04:00,39.9,36.6,29.96,NNE,19,0.0,0.0,88,0.03,,---,0.73,VWS V13.01,2013-05-24 04:04:00,
2013-05-23 22:10:00,39.8,36.5,29.96,NNE,19,0.0,0.0,88,0.02,,---,0.73,VWS V13.01,2013-05-24 04:10:00,
2013-05-23 22:13:00,39.8,36.8,29.96,NNE,19,0.0,0.0,89,0.02,,---,0.74,VWS V13.01,2013-05-24 04:13:00,
2013-05-23 22:18:00,39.6,36.6,29.95,NNE,19,0.0,0.0,89,0.02,,---,0.74,VWS V13.01,2013-05-24 04:18:00,
2013-05-23 22:23:00,39.6,36.9,29.95,NNE,19,0.0,0.0,90,0.02,,---,0.74,VWS V13.01,2013-05-24 04:23:00,
2013-05-23 22:28:00,39.6,36.6,29.95,NNE,19,0.0,0.0,89,0.01,,---,0.74,VWS V13.01,2013-05-24 04:28:00,
2013-05-23 22:33:00,39.6,36.9,29.95,NNE,19,0.0,0.0,90,0.01,,---,0.74,VWS V13.01,2013-05-24 04:33:00,
2013-05-23 22:39:00,39.6,36.9,29.95,NNE,19,0.0,0.0,90,0.01,,---,0.74,VWS V13.01,2013-05-24 04:39:00,
2013-05-23 22:44:00,39.6,36.9,29.95,NNE,19,0.0,0.0,90,0.01,,---,0.74,VWS V13.01,2013-05-24 04:44:00,
2013-05-23 22:49:00,39.6,36.9,29.97,NNE,19,0.0,3.0,90,0.01,,---,0.74,VWS V13.01,2013-05-24 04:49:00,
2013-05-23 22:54:00,39.6,36.9,29.97,East,84,0.0,0.0,90,0.02,,---,0.75,VWS V13.01,2013-05-24 04:54:00,
2013-05-23 22:59:00,39.6,36.9,29.97,East,83,0.0,0.0,90,0.03,,---,0.76,VWS V13.01,2013-05-24 04:59:00,
2013-05-23 23:04:00,39.8,37.1,29.96,East,83,0.0,0.0,90,0.03,,---,0.76,VWS V13.01,2013-05-24 05:04:00,
2013-05-23 23:09:00,39.8,37.1,29.96,East,83,0.0,0.0,90,0.04,,---,0.77,VWS V13.01,2013-05-24 05:09:00,
2013-05-23 23:14:00,39.8,37.1,29.96,East,83,0.0,0.0,90,0.04,,---,0.78,VWS V13.01,2013-05-24 05:14:00,
2013-05-23 23:19:00,39.6,36.9,29.94,East,83,0.0,0.0,90,0.04,,---,0.78,VWS V13.01,2013-05-24 05:19:00,
2013-05-23 23:24:00,39.6,36.9,29.94,East,83,0.0,0.0,90,0.04,,---,0.78,VWS V13.01,2013-05-24 05:24:00,
2013-05-23 23:29:00,39.5,36.8,29.94,East,83,0.0,0.0,90,0.05,,---,0.79,VWS V13.01,2013-05-24 05:29:00,
2013-05-23 23:34:00,39.5,36.5,29.93,East,83,0.0,0.0,89,0.05,,---,0.79,VWS V13.01,2013-05-24 05:34:00,
2013-05-23 23:39:00,39.3,36.3,29.93,East,83,0.0,0.0,89,0.05,,---,0.79,VWS V13.01,2013-05-24 05:39:00,
2013-05-23 23:45:00,39.1,36.1,29.93,East,83,0.0,0.0,89,0.05,,---,0.79,VWS V13.01,2013-05-24 05:45:00,
2013-05-23 23:50:00,38.9,35.9,29.94,East,83,0.0,0.0,89,0.05,,---,0.79,VWS V13.01,2013-05-24 05:50:00,
2013-05-23 23:55:00,38.8,35.8,29.94,East,83,0.0,0.0,89,0.04,,---,0.79,VWS V13.01,2013-05-24 05:55:00,